createdAt,value
2022-11-25T00:01:21.054Z,3.09
2022-11-25T00:03:48.477Z,3.13
2022-11-25T00:06:18.000Z,3.02
2022-11-25T00:08:47.436Z,3.01
2022-11-25T00:11:14.617Z,3.08
2022-11-25T00:13:42.558Z,3.04
2022-11-25T00:16:18.658Z,3.14
2022-11-25T00:18:51.126Z,3.23
2022-11-25T00:21:20.772Z,3.18
2022-11-25T00:23:56.043Z,3.24
2022-11-25T00:26:24.616Z,3.22
2022-11-25T00:28:52.187Z,3.15
2022-11-25T00:31:22.079Z,3.26
2022-11-25T00:33:49.812Z,3.32
2022-11-25T00:36:31.666Z,3.32
2022-11-25T00:39:01.124Z,3.34
2022-11-25T00:41:47.925Z,3.39
2022-11-25T00:44:36.910Z,3.36
2022-11-25T00:47:05.557Z,3.29
2022-11-25T00:49:33.071Z,3.31
2022-11-25T00:52:00.256Z,3.39
2022-11-25T00:54:27.466Z,3.45
2022-11-25T00:56:54.867Z,3.43
2022-11-25T00:59:22.057Z,3.44
2022-11-25T01:01:49.355Z,3.41
2022-11-25T01:04:16.948Z,3.41
2022-11-25T01:06:44.127Z,3.41
2022-11-25T01:09:14.400Z,3.39
2022-11-25T01:11:41.806Z,3.39
2022-11-25T01:14:09.140Z,3.39
2022-11-25T01:16:36.841Z,3.31
2022-11-25T01:19:04.695Z,3.37
2022-11-25T01:21:33.357Z,3.38
2022-11-25T01:24:01.708Z,3.35
2022-11-25T01:26:29.919Z,3.23
2022-11-25T01:29:02.709Z,3.12
2022-11-25T01:31:32.761Z,3.02
2022-11-25T01:34:02.443Z,3.03
2022-11-25T01:36:30.107Z,3.03
2022-11-25T01:38:59.434Z,3.06
2022-11-25T01:41:28.899Z,3.02
2022-11-25T01:44:10.023Z,2.99
2022-11-25T01:46:52.165Z,3.11
2022-11-25T01:49:35.996Z,3.13
2022-11-25T01:52:06.699Z,3.02
2022-11-25T01:54:41.015Z,3.03
2022-11-25T01:57:16.576Z,3.06
2022-11-25T01:59:48.381Z,3.00
2022-11-25T02:02:15.984Z,2.94
2022-11-25T02:04:44.322Z,2.93
2022-11-25T02:07:19.903Z,2.91
2022-11-25T02:09:48.150Z,2.96
2022-11-25T02:12:16.909Z,2.89
2022-11-25T02:14:44.880Z,2.92
2022-11-25T02:17:12.323Z,2.89
2022-11-25T02:19:57.284Z,2.76
2022-11-25T02:22:34.480Z,2.80
2022-11-25T02:25:14.671Z,2.92
2022-11-25T02:27:44.112Z,3.03
2022-11-25T02:30:11.330Z,3.12
2022-11-25T02:32:44.479Z,3.18
2022-11-25T02:35:36.858Z,3.28
2022-11-25T02:38:10.143Z,3.28
2022-11-25T02:40:46.591Z,3.30
2022-11-25T02:43:14.140Z,3.34
2022-11-25T02:46:07.136Z,3.39
2022-11-25T02:51:27.039Z,3.35
2022-11-25T02:53:54.805Z,3.26
2022-11-25T02:56:23.928Z,3.22
2022-11-25T02:58:51.145Z,3.32
2022-11-25T03:01:19.723Z,3.40
2022-11-25T03:03:47.026Z,3.29
2022-11-25T03:06:14.369Z,3.27
2022-11-25T03:08:41.591Z,3.33
2022-11-25T03:11:08.814Z,3.35
2022-11-25T03:13:36.091Z,3.32
2022-11-25T03:16:03.323Z,3.33
2022-11-25T03:18:30.570Z,3.40
2022-11-25T03:20:57.829Z,3.19
2022-11-25T03:23:25.582Z,3.27
2022-11-25T03:25:52.839Z,3.35
2022-11-25T03:28:20.011Z,3.31
2022-11-25T03:30:47.204Z,3.36
2022-11-25T03:33:14.414Z,3.36
2022-11-25T03:35:41.894Z,3.43
2022-11-25T03:38:09.112Z,3.47
2022-11-25T03:40:36.289Z,3.54
2022-11-25T03:43:03.497Z,3.58
2022-11-25T03:45:30.839Z,3.61
2022-11-25T03:47:58.089Z,3.45
2022-11-25T03:50:25.317Z,3.49
2022-11-25T03:52:52.503Z,3.55
2022-11-25T03:55:19.822Z,3.61
2022-11-25T03:57:47.019Z,3.64
2022-11-25T04:00:14.401Z,3.67
2022-11-25T04:02:41.726Z,3.66
2022-11-25T04:05:09.385Z,3.64
2022-11-25T04:07:36.658Z,3.67
2022-11-25T04:10:04.212Z,3.70
2022-11-25T04:12:49.669Z,3.60
2022-11-25T04:15:17.831Z,3.65
2022-11-25T04:17:45.080Z,3.71
2022-11-25T04:20:13.305Z,3.73
2022-11-25T04:22:40.581Z,3.64
2022-11-25T04:25:08.645Z,3.68
2022-11-25T04:27:35.849Z,3.70
2022-11-25T04:30:03.327Z,3.75
2022-11-25T04:32:30.516Z,3.71
2022-11-25T04:34:57.742Z,3.79
2022-11-25T04:37:24.993Z,3.80
2022-11-25T04:39:52.270Z,3.80
2022-11-25T04:42:36.387Z,3.82
2022-11-25T04:45:22.607Z,3.81
2022-11-25T04:47:51.081Z,3.80
2022-11-25T04:50:20.838Z,3.83
2022-11-25T04:52:48.144Z,3.84
2022-11-25T04:55:15.411Z,3.75
2022-11-25T04:57:42.668Z,3.80
2022-11-25T05:00:10.605Z,3.79
2022-11-25T05:02:38.104Z,3.68
2022-11-25T05:05:06.024Z,3.76
2022-11-25T05:07:33.369Z,3.78
2022-11-25T05:10:00.633Z,3.80
2022-11-25T05:12:29.338Z,3.80
2022-11-25T05:14:56.830Z,3.76
2022-11-25T05:17:30.321Z,3.74
2022-11-25T05:19:57.751Z,3.63
2022-11-25T05:22:27.489Z,3.61
2022-11-25T05:24:55.103Z,3.58
2022-11-25T05:27:22.809Z,3.57
2022-11-25T05:29:54.418Z,3.53
2022-11-25T05:32:23.159Z,3.46
2022-11-25T05:34:50.371Z,3.41
2022-11-25T05:37:22.730Z,3.36
2022-11-25T05:39:51.526Z,3.26
2022-11-25T05:42:20.826Z,3.10
2022-11-25T05:44:48.019Z,3.02
2022-11-25T05:47:15.217Z,2.97
2022-11-25T05:49:42.478Z,2.88
2022-11-25T05:52:09.979Z,2.79
2022-11-25T05:54:37.386Z,2.72
2022-11-25T05:57:04.762Z,2.72
2022-11-25T05:59:31.991Z,2.70
2022-11-25T06:01:59.281Z,2.70
2022-11-25T06:04:26.650Z,2.68
2022-11-25T06:06:54.265Z,2.68
2022-11-25T06:09:21.473Z,2.67
2022-11-25T06:11:48.669Z,2.66
2022-11-25T06:14:17.692Z,2.61
2022-11-25T06:16:44.867Z,2.65
2022-11-25T06:19:12.076Z,2.72
2022-11-25T06:21:39.283Z,2.82
2022-11-25T06:24:06.805Z,2.82
2022-11-25T06:26:34.091Z,2.79
2022-11-25T06:29:01.374Z,2.79
2022-11-25T06:31:28.614Z,2.85
2022-11-25T06:33:56.008Z,2.89
2022-11-25T06:36:23.853Z,2.91
2022-11-25T06:38:53.165Z,2.94
2022-11-25T06:41:21.375Z,2.99
2022-11-25T06:43:48.738Z,2.97
2022-11-25T06:46:24.139Z,2.95
2022-11-25T06:48:52.535Z,2.95
2022-11-25T06:51:19.757Z,2.93
2022-11-25T06:53:47.167Z,2.97
2022-11-25T06:56:17.833Z,2.99
2022-11-25T06:58:46.065Z,2.88
2022-11-25T07:01:22.457Z,2.88
2022-11-25T07:03:54.739Z,2.80
2022-11-25T07:06:21.989Z,2.71
2022-11-25T07:08:49.708Z,2.64
2022-11-25T07:11:22.667Z,2.58
2022-11-25T07:13:52.935Z,2.62
2022-11-25T07:16:20.521Z,2.71
2022-11-25T07:18:47.910Z,2.66
2022-11-25T07:21:17.111Z,2.66
2022-11-25T07:23:45.593Z,2.71
2022-11-25T07:26:15.775Z,2.68
2022-11-25T07:28:43.594Z,2.86
2022-11-25T07:31:27.126Z,2.84
2022-11-25T07:34:00.856Z,2.82
2022-11-25T07:36:28.914Z,2.74
2022-11-25T07:38:57.224Z,2.65
2022-11-25T07:41:25.707Z,2.71
2022-11-25T07:43:55.635Z,2.75
2022-11-25T07:46:27.430Z,2.83
2022-11-25T07:48:56.719Z,2.77
2022-11-25T07:51:31.918Z,2.84
2022-11-25T07:54:00.592Z,2.89
2022-11-25T07:56:28.713Z,2.93
2022-11-25T07:58:56.524Z,3.08
2022-11-25T08:01:24.136Z,3.14
2022-11-25T08:03:52.277Z,3.18
2022-11-25T08:06:22.380Z,3.21
2022-11-25T08:08:50.116Z,3.02
2022-11-25T08:11:20.382Z,3.03
2022-11-25T08:13:48.223Z,3.03
2022-11-25T08:16:17.577Z,3.06
2022-11-25T08:18:44.779Z,2.94
2022-11-25T08:21:13.449Z,2.95
2022-11-25T08:23:43.357Z,2.90
2022-11-25T08:26:20.328Z,2.95
2022-11-25T08:28:47.800Z,2.92
2022-11-25T08:31:18.871Z,3.02
2022-11-25T08:33:46.638Z,3.18
2022-11-25T08:36:14.208Z,3.15
2022-11-25T08:38:42.106Z,3.11
2022-11-25T08:41:15.473Z,3.12
2022-11-25T08:43:43.394Z,3.11
2022-11-25T08:46:13.490Z,3.10
2022-11-25T08:48:41.142Z,3.06
2022-11-25T08:51:11.118Z,3.18
2022-11-25T08:53:39.683Z,3.20
2022-11-25T08:56:07.554Z,3.36
2022-11-25T08:58:35.227Z,3.49
2022-11-25T09:01:02.960Z,3.59
2022-11-25T09:03:33.491Z,3.69
2022-11-25T09:06:01.069Z,3.67
2022-11-25T09:08:28.783Z,3.67
2022-11-25T09:10:56.073Z,3.74
2022-11-25T09:13:23.455Z,3.78
2022-11-25T09:15:50.908Z,3.89
2022-11-25T09:18:20.201Z,3.91
2022-11-25T09:20:47.959Z,3.83
2022-11-25T09:23:15.254Z,3.76
2022-11-25T09:25:53.196Z,3.74
2022-11-25T09:28:24.623Z,3.78
2022-11-25T09:30:52.653Z,3.80
2022-11-25T09:33:20.519Z,3.86
2022-11-25T09:35:48.596Z,3.94
2022-11-25T09:38:16.170Z,3.94
2022-11-25T09:40:55.427Z,4.02
2022-11-25T09:44:00.072Z,4.03
2022-11-25T09:46:54.186Z,4.17
2022-11-25T09:49:37.380Z,4.23
2022-11-25T09:52:16.693Z,4.32
2022-11-25T09:55:17.457Z,4.52
2022-11-25T09:57:59.974Z,4.55
2022-11-25T10:00:43.199Z,4.61
2022-11-25T10:03:33.801Z,4.74
2022-11-25T10:06:06.250Z,4.79
2022-11-25T10:08:40.153Z,4.88
2022-11-25T10:11:25.070Z,5.04
2022-11-25T10:13:58.122Z,5.06
2022-11-25T10:16:36.522Z,5.15
2022-11-25T10:19:16.438Z,5.26
2022-11-25T10:21:46.320Z,5.40
2022-11-25T10:24:15.336Z,5.42
2022-11-25T10:26:45.523Z,5.59
2022-11-25T10:29:24.658Z,5.77
2022-11-25T10:31:56.828Z,5.84
2022-11-25T10:34:35.700Z,5.91
2022-11-25T10:37:06.964Z,5.88
2022-11-25T10:39:35.546Z,6.06
2022-11-25T10:42:08.396Z,6.12
2022-11-25T10:44:40.338Z,6.30
2022-11-25T10:47:32.702Z,6.35
2022-11-25T10:50:51.880Z,6.53
2022-11-25T10:53:23.097Z,6.47
2022-11-25T10:56:16.670Z,6.54
2022-11-25T10:58:44.682Z,6.54
2022-11-25T11:01:22.832Z,6.68
2022-11-25T11:04:06.102Z,6.82
2022-11-25T11:06:38.295Z,6.94
2022-11-25T11:09:05.564Z,7.07
2022-11-25T11:11:32.837Z,7.18
2022-11-25T11:14:14.535Z,7.42
2022-11-25T11:16:45.481Z,7.47
2022-11-25T11:19:26.569Z,7.49
2022-11-25T11:21:55.788Z,7.44
2022-11-25T11:24:27.844Z,7.59
2022-11-25T11:27:23.026Z,7.59
2022-11-25T11:30:14.137Z,7.62
2022-11-25T11:32:56.671Z,7.49
2022-11-25T11:35:52.851Z,7.49
2022-11-25T11:38:48.015Z,7.58
2022-11-25T11:41:34.410Z,7.55
2022-11-25T11:44:06.094Z,7.50
2022-11-25T11:47:05.168Z,7.49
2022-11-25T11:49:45.001Z,7.37
2022-11-25T11:52:30.549Z,7.32
2022-11-25T11:55:25.071Z,7.30
2022-11-25T11:58:23.346Z,7.30
2022-11-25T12:00:57.994Z,7.24
2022-11-25T12:03:26.340Z,7.20
2022-11-25T12:05:57.404Z,7.21
2022-11-25T12:08:49.536Z,7.28
2022-11-25T12:11:24.974Z,7.29
2022-11-25T12:14:03.301Z,7.32
2022-11-25T12:17:02.658Z,7.38
2022-11-25T12:19:44.397Z,7.41
2022-11-25T12:22:32.385Z,7.57
2022-11-25T12:25:06.417Z,7.49
2022-11-25T12:27:45.050Z,7.53
2022-11-25T12:30:23.190Z,7.52
2022-11-25T12:33:21.492Z,7.42
2022-11-25T12:36:14.089Z,7.37
2022-11-25T12:38:57.359Z,7.40
2022-11-25T12:41:31.084Z,7.53
2022-11-25T12:44:25.288Z,7.54
2022-11-25T12:46:54.841Z,7.56
2022-11-25T12:49:33.464Z,7.55
2022-11-25T12:52:38.304Z,7.73
2022-11-25T12:55:16.011Z,7.68
2022-11-25T12:57:49.056Z,7.60
2022-11-25T13:00:42.279Z,7.61
2022-11-25T13:03:29.919Z,7.55
2022-11-25T13:06:28.966Z,7.62
2022-11-25T13:09:31.829Z,7.55
2022-11-25T13:12:28.912Z,7.55
2022-11-25T13:15:18.345Z,7.62
2022-11-25T13:17:47.416Z,7.75
2022-11-25T13:20:29.857Z,7.66
2022-11-25T13:23:07.808Z,7.69
2022-11-25T13:25:36.777Z,7.75
2022-11-25T13:28:11.086Z,7.72
2022-11-25T13:30:39.993Z,7.70
2022-11-25T13:33:12.828Z,7.69
2022-11-25T13:35:47.212Z,7.63
2022-11-25T13:38:37.236Z,7.70
2022-11-25T13:41:10.486Z,7.70
2022-11-25T13:43:52.468Z,7.70
2022-11-25T13:46:37.966Z,7.72
2022-11-25T13:49:07.456Z,7.75
2022-11-25T13:51:34.733Z,7.73
2022-11-25T13:54:05.229Z,7.72
2022-11-25T13:56:37.202Z,7.89
2022-11-25T13:59:17.102Z,7.96
2022-11-25T14:01:47.490Z,7.85
2022-11-25T14:04:16.580Z,7.81
2022-11-25T14:07:01.862Z,7.76
2022-11-25T14:09:42.782Z,7.80
2022-11-25T14:12:32.068Z,7.78
2022-11-25T14:15:01.189Z,7.79
2022-11-25T14:17:47.883Z,7.66
2022-11-25T14:20:45.980Z,7.55
2022-11-25T14:23:22.620Z,7.48
2022-11-25T14:26:04.061Z,7.39
2022-11-25T14:28:47.232Z,7.38
2022-11-25T14:31:23.356Z,7.44
2022-11-25T14:34:00.295Z,7.40
2022-11-25T14:36:42.269Z,7.34
2022-11-25T14:39:23.151Z,7.33
2022-11-25T14:42:12.360Z,7.33
2022-11-25T14:44:49.529Z,7.22
2022-11-25T14:47:22.939Z,7.16
2022-11-25T14:50:18.959Z,7.30
2022-11-25T14:52:47.678Z,7.26
2022-11-25T14:55:25.958Z,7.29
2022-11-25T14:57:53.599Z,7.32
2022-11-25T15:00:21.153Z,7.32
2022-11-25T15:02:57.817Z,7.22
2022-11-25T15:05:31.866Z,7.22
2022-11-25T15:08:24.471Z,7.21
2022-11-25T15:10:52.504Z,7.22
2022-11-25T15:13:39.236Z,7.12
2022-11-25T15:16:24.912Z,7.14
2022-11-25T15:18:55.640Z,7.11
2022-11-25T15:22:20.774Z,7.24
2022-11-25T15:24:50.199Z,7.13
2022-11-25T15:27:28.754Z,7.14
2022-11-25T15:29:57.545Z,7.24
2022-11-25T15:32:29.176Z,7.27
2022-11-25T15:34:58.752Z,7.29
2022-11-25T15:37:26.411Z,7.32
2022-11-25T15:40:31.341Z,7.38
2022-11-25T15:42:59.794Z,7.34
2022-11-25T15:45:38.404Z,7.39
2022-11-25T15:48:08.954Z,7.39
2022-11-25T15:50:36.212Z,7.38
2022-11-25T15:53:05.029Z,7.42
2022-11-25T15:55:50.844Z,7.29
2022-11-25T15:58:23.130Z,7.35
2022-11-25T16:01:04.899Z,7.42
2022-11-25T16:03:32.913Z,7.33
2022-11-25T16:06:01.442Z,7.30
2022-11-25T16:08:32.143Z,7.19
2022-11-25T16:11:16.118Z,7.30
2022-11-25T16:13:43.780Z,7.32
2022-11-25T16:16:28.806Z,7.30
2022-11-25T16:19:38.013Z,7.36
2022-11-25T16:22:06.008Z,7.27
2022-11-25T16:24:46.215Z,7.27
2022-11-25T16:27:20.325Z,7.29
2022-11-25T16:29:55.069Z,7.37
2022-11-25T16:32:30.432Z,7.36
2022-11-25T16:35:16.515Z,7.39
2022-11-25T16:37:48.533Z,7.41
2022-11-25T16:40:17.622Z,7.39
2022-11-25T16:42:49.646Z,7.39
2022-11-25T16:45:28.498Z,7.40
2022-11-25T16:47:56.156Z,7.37
2022-11-25T16:50:23.759Z,7.35
2022-11-25T16:52:51.165Z,7.34
2022-11-25T16:55:18.521Z,7.31
2022-11-25T16:57:45.923Z,7.34
2022-11-25T17:00:16.809Z,7.37
2022-11-25T17:02:45.113Z,7.32
2022-11-25T17:05:25.341Z,7.32
2022-11-25T17:07:52.736Z,7.26
2022-11-25T17:10:21.501Z,7.27
2022-11-25T17:12:51.835Z,7.20
2022-11-25T17:15:35.997Z,7.19
2022-11-25T17:18:04.904Z,7.15
2022-11-25T17:20:32.157Z,7.18
2022-11-25T17:23:00.165Z,7.22
2022-11-25T17:25:32.314Z,7.22
2022-11-25T17:28:02.516Z,7.20
2022-11-25T17:30:30.086Z,7.17
2022-11-25T17:33:10.344Z,7.13
2022-11-25T17:35:37.548Z,7.18
2022-11-25T17:38:28.832Z,7.14
2022-11-25T17:40:59.503Z,7.14
2022-11-25T17:43:31.691Z,7.17
2022-11-25T17:46:01.653Z,7.18
2022-11-25T17:48:28.997Z,7.20
2022-11-25T17:50:56.352Z,7.21
2022-11-25T17:53:23.691Z,7.19
2022-11-25T17:55:52.480Z,7.21
2022-11-25T17:58:20.671Z,7.21
2022-11-25T18:00:49.011Z,7.22
2022-11-25T18:03:17.426Z,7.22
2022-11-25T18:05:46.196Z,7.24
2022-11-25T18:08:13.417Z,7.26
2022-11-25T18:10:41.117Z,7.23
2022-11-25T18:13:11.179Z,7.23
2022-11-25T18:15:39.425Z,7.22
2022-11-25T18:18:22.022Z,7.26
2022-11-25T18:20:49.787Z,7.28
2022-11-25T18:23:20.444Z,7.27
2022-11-25T18:25:47.696Z,7.28
2022-11-25T18:28:20.172Z,7.28
2022-11-25T18:30:48.054Z,7.26
2022-11-25T18:33:17.242Z,7.23
2022-11-25T18:35:45.940Z,7.24
2022-11-25T18:38:13.672Z,7.27
2022-11-25T18:40:42.516Z,7.24
2022-11-25T18:43:18.751Z,7.27
2022-11-25T18:45:46.744Z,7.26
2022-11-25T18:48:19.751Z,7.27
2022-11-25T18:50:47.733Z,7.29
2022-11-25T18:53:15.436Z,7.29
2022-11-25T18:55:42.783Z,7.25
2022-11-25T18:58:17.023Z,7.26
2022-11-25T19:00:46.706Z,7.28
2022-11-25T19:03:25.965Z,7.29
2022-11-25T19:05:58.631Z,7.30
2022-11-25T19:08:25.904Z,7.22
2022-11-25T19:10:53.267Z,7.20
2022-11-25T19:13:33.223Z,7.23
2022-11-25T19:16:08.621Z,7.21
2022-11-25T19:18:35.955Z,7.14
2022-11-25T19:21:03.427Z,7.18
2022-11-25T19:23:30.788Z,7.21
2022-11-25T19:26:07.945Z,7.24
2022-11-25T19:28:35.513Z,7.27
2022-11-25T19:31:04.612Z,7.24
2022-11-25T19:33:36.031Z,7.29
2022-11-25T19:36:04.134Z,7.24
2022-11-25T19:38:32.872Z,7.22
2022-11-25T19:41:00.284Z,7.22
2022-11-25T19:43:28.183Z,7.24
2022-11-25T19:45:56.435Z,7.28
2022-11-25T19:48:29.523Z,7.33
2022-11-25T19:50:59.663Z,7.31
2022-11-25T19:53:33.810Z,7.32
2022-11-25T19:56:04.558Z,7.36
2022-11-25T19:58:32.271Z,7.37
2022-11-25T20:01:02.654Z,7.38
2022-11-25T20:03:30.984Z,7.39
2022-11-25T20:05:58.539Z,7.37
2022-11-25T20:08:27.888Z,7.34
2022-11-25T20:10:55.368Z,7.39
2022-11-25T20:13:26.236Z,7.31
2022-11-25T20:15:55.591Z,7.33
2022-11-25T20:18:24.319Z,7.38
2022-11-25T20:21:00.117Z,7.39
2022-11-25T20:23:38.582Z,7.42
2022-11-25T20:26:12.390Z,7.42
2022-11-25T20:28:39.722Z,7.44
2022-11-25T20:31:08.522Z,7.42
2022-11-25T20:33:35.849Z,7.45
2022-11-25T20:36:06.452Z,7.47
2022-11-25T20:38:35.268Z,7.49
2022-11-25T20:41:04.291Z,7.50
2022-11-25T20:43:37.088Z,7.49
2022-11-25T20:46:05.545Z,7.47
2022-11-25T20:48:35.056Z,7.47
2022-11-25T20:51:04.070Z,7.50
2022-11-25T20:53:32.435Z,7.52
2022-11-25T20:56:00.398Z,7.48
2022-11-25T20:58:29.775Z,7.44
2022-11-25T21:00:58.263Z,7.49
2022-11-25T21:03:26.185Z,7.53
2022-11-25T21:05:55.083Z,7.57
2022-11-25T21:08:24.519Z,7.57
2022-11-25T21:10:52.785Z,7.57
2022-11-25T21:13:30.695Z,7.57
2022-11-25T21:15:58.377Z,7.56
2022-11-25T21:18:26.099Z,7.54
2022-11-25T21:20:55.053Z,7.59
2022-11-25T21:23:25.108Z,7.58
2022-11-25T21:25:52.480Z,7.56
2022-11-25T21:28:24.950Z,7.59
2022-11-25T21:30:52.336Z,7.63
2022-11-25T21:33:19.664Z,7.60
2022-11-25T21:35:48.711Z,7.62
2022-11-25T21:38:18.253Z,7.63
2022-11-25T21:40:50.723Z,7.64
2022-11-25T21:43:22.332Z,7.63
2022-11-25T21:45:52.525Z,7.63
2022-11-25T21:48:25.069Z,7.66
2022-11-25T21:50:52.894Z,7.63
2022-11-25T21:53:20.564Z,7.67
2022-11-25T21:55:48.562Z,7.69
2022-11-25T21:58:18.584Z,7.70
2022-11-25T22:01:03.245Z,7.62
2022-11-25T22:03:31.911Z,7.66
2022-11-25T22:06:00.234Z,7.69
2022-11-25T22:08:27.503Z,7.70
2022-11-25T22:10:56.102Z,7.74
2022-11-25T22:13:27.864Z,7.69
2022-11-25T22:15:58.177Z,7.69
2022-11-25T22:18:35.440Z,7.74
2022-11-25T22:21:03.553Z,7.73
2022-11-25T22:23:30.991Z,7.72
2022-11-25T22:25:58.315Z,7.74
2022-11-25T22:28:27.876Z,7.77
2022-11-25T22:31:08.529Z,7.78
2022-11-25T22:33:38.069Z,7.76
2022-11-25T22:36:05.807Z,7.74
2022-11-25T22:38:33.175Z,7.70
2022-11-25T22:41:05.347Z,7.70
2022-11-25T22:43:38.958Z,7.75
2022-11-25T22:46:06.890Z,7.73
2022-11-25T22:48:38.210Z,7.68
2022-11-25T22:51:27.148Z,7.60
2022-11-25T22:53:54.399Z,7.63
2022-11-25T22:56:21.717Z,7.65
2022-11-25T22:58:49.549Z,7.61
2022-11-25T23:01:17.473Z,7.67
2022-11-25T23:03:45.242Z,7.70
2022-11-25T23:06:13.242Z,7.75
2022-11-25T23:08:40.937Z,7.68
2022-11-25T23:11:13.282Z,7.63
2022-11-25T23:13:40.572Z,7.59
2022-11-25T23:16:09.810Z,7.61
2022-11-25T23:18:46.287Z,7.66
2022-11-25T23:21:20.044Z,7.65
2022-11-25T23:23:47.309Z,7.67
2022-11-25T23:26:15.271Z,7.66
2022-11-25T23:28:52.356Z,7.69
2022-11-25T23:31:19.735Z,7.65
2022-11-25T23:33:51.951Z,7.77
2022-11-25T23:36:28.835Z,7.70
2022-11-25T23:38:58.809Z,7.70
2022-11-25T23:41:32.057Z,7.76
2022-11-25T23:44:23.699Z,7.75
2022-11-25T23:46:52.789Z,7.76
2022-11-25T23:49:26.342Z,7.79
2022-11-25T23:51:56.433Z,7.83
2022-11-25T23:54:30.538Z,7.86
2022-11-25T23:56:58.233Z,7.77
2022-11-25T23:59:29.708Z,7.74
